sensor_id;sensor_type;location;lat;lon;timestamp;temperature;humidity
34434;DHT22;34290;48.562;13.384;2022-10-16T00:01:07;12.70;99.90
34434;DHT22;34290;48.562;13.384;2022-10-16T00:03:34;12.60;99.90
34434;DHT22;34290;48.562;13.384;2022-10-16T00:06:01;12.50;99.90
34434;DHT22;34290;48.562;13.384;2022-10-16T00:08:30;12.40;99.90
34434;DHT22;34290;48.562;13.384;2022-10-16T00:11:01;12.30;99.90
34434;DHT22;34290;48.562;13.384;2022-10-16T00:13:29;12.40;99.90
34434;DHT22;34290;48.562;13.384;2022-10-16T00:15:57;12.20;99.90
34434;DHT22;34290;48.562;13.384;2022-10-16T00:18:25;12.20;99.90
34434;DHT22;34290;48.562;13.384;2022-10-16T00:20:52;12.20;99.90
34434;DHT22;34290;48.562;13.384;2022-10-16T00:25:55;12.30;99.90
34434;DHT22;34290;48.562;13.384;2022-10-16T00:28:23;12.30;99.90
34434;DHT22;34290;48.562;13.384;2022-10-16T00:30:50;12.30;99.90
34434;DHT22;34290;48.562;13.384;2022-10-16T00:33:17;12.40;99.90
34434;DHT22;34290;48.562;13.384;2022-10-16T00:35:44;12.40;99.90
34434;DHT22;34290;48.562;13.384;2022-10-16T00:38:11;12.40;99.90
34434;DHT22;34290;48.562;13.384;2022-10-16T00:40:38;12.30;99.90
34434;DHT22;34290;48.562;13.384;2022-10-16T00:43:13;12.20;99.90
34434;DHT22;34290;48.562;13.384;2022-10-16T00:45:41;12.20;99.90
34434;DHT22;34290;48.562;13.384;2022-10-16T00:48:11;12.10;99.90
34434;DHT22;34290;48.562;13.384;2022-10-16T00:53:10;12.20;99.90
34434;DHT22;34290;48.562;13.384;2022-10-16T00:55:38;12.10;99.90
34434;DHT22;34290;48.562;13.384;2022-10-16T00:58:06;12.20;99.90
34434;DHT22;34290;48.562;13.384;2022-10-16T01:00:34;12.20;99.90
34434;DHT22;34290;48.562;13.384;2022-10-16T01:03:02;12.20;99.90
34434;DHT22;34290;48.562;13.384;2022-10-16T01:05:33;12.20;99.90
34434;DHT22;34290;48.562;13.384;2022-10-16T01:08:05;12.20;99.90
34434;DHT22;34290;48.562;13.384;2022-10-16T01:10:39;12.20;99.90
34434;DHT22;34290;48.562;13.384;2022-10-16T01:13:11;12.20;99.90
34434;DHT22;34290;48.562;13.384;2022-10-16T01:15:47;12.20;99.90
34434;DHT22;34290;48.562;13.384;2022-10-16T01:18:18;12.20;99.90
34434;DHT22;34290;48.562;13.384;2022-10-16T01:20:51;12.10;99.90
34434;DHT22;34290;48.562;13.384;2022-10-16T01:23:27;12.00;99.90
34434;DHT22;34290;48.562;13.384;2022-10-16T01:26:20;11.90;99.90
34434;DHT22;34290;48.562;13.384;2022-10-16T01:28:52;11.90;99.90
34434;DHT22;34290;48.562;13.384;2022-10-16T01:31:27;11.80;99.90
34434;DHT22;34290;48.562;13.384;2022-10-16T01:33:59;11.80;99.90
34434;DHT22;34290;48.562;13.384;2022-10-16T01:36:31;11.80;99.90
34434;DHT22;34290;48.562;13.384;2022-10-16T01:39:02;11.70;99.90
34434;DHT22;34290;48.562;13.384;2022-10-16T01:41:33;11.60;99.90
34434;DHT22;34290;48.562;13.384;2022-10-16T01:44:05;11.60;99.90
34434;DHT22;34290;48.562;13.384;2022-10-16T01:46:35;11.50;99.90
34434;DHT22;34290;48.562;13.384;2022-10-16T01:49:03;11.50;99.90
34434;DHT22;34290;48.562;13.384;2022-10-16T01:51:32;11.40;99.90
34434;DHT22;34290;48.562;13.384;2022-10-16T01:54:02;11.30;99.90
34434;DHT22;34290;48.562;13.384;2022-10-16T01:56:31;11.30;99.90
34434;DHT22;34290;48.562;13.384;2022-10-16T01:59:04;11.30;99.90
34434;DHT22;34290;48.562;13.384;2022-10-16T02:01:37;11.30;99.90
34434;DHT22;34290;48.562;13.384;2022-10-16T02:04:09;11.30;99.90
34434;DHT22;34290;48.562;13.384;2022-10-16T02:06:38;11.20;99.90
34434;DHT22;34290;48.562;13.384;2022-10-16T02:09:05;11.30;99.90
34434;DHT22;34290;48.562;13.384;2022-10-16T02:11:32;11.30;99.90
34434;DHT22;34290;48.562;13.384;2022-10-16T02:14:03;11.30;99.90
34434;DHT22;34290;48.562;13.384;2022-10-16T02:16:36;11.20;99.90
34434;DHT22;34290;48.562;13.384;2022-10-16T02:19:05;11.20;99.90
34434;DHT22;34290;48.562;13.384;2022-10-16T02:21:39;11.20;99.90
34434;DHT22;34290;48.562;13.384;2022-10-16T02:24:11;11.10;99.90
34434;DHT22;34290;48.562;13.384;2022-10-16T02:26:45;11.00;99.90
34434;DHT22;34290;48.562;13.384;2022-10-16T02:29:19;10.90;99.90
34434;DHT22;34290;48.562;13.384;2022-10-16T02:31:53;11.00;99.90
34434;DHT22;34290;48.562;13.384;2022-10-16T02:34:24;10.90;99.90
34434;DHT22;34290;48.562;13.384;2022-10-16T02:36:52;10.90;99.90
34434;DHT22;34290;48.562;13.384;2022-10-16T02:39:20;10.90;99.90
34434;DHT22;34290;48.562;13.384;2022-10-16T02:44:16;10.90;99.90
34434;DHT22;34290;48.562;13.384;2022-10-16T02:46:43;10.90;99.90
34434;DHT22;34290;48.562;13.384;2022-10-16T02:49:10;10.90;99.90
34434;DHT22;34290;48.562;13.384;2022-10-16T02:51:37;10.90;99.90
34434;DHT22;34290;48.562;13.384;2022-10-16T02:54:04;10.90;99.90
34434;DHT22;34290;48.562;13.384;2022-10-16T02:56:31;11.00;99.90
34434;DHT22;34290;48.562;13.384;2022-10-16T02:58:58;11.00;99.90
34434;DHT22;34290;48.562;13.384;2022-10-16T03:01:27;11.00;99.90
34434;DHT22;34290;48.562;13.384;2022-10-16T03:03:54;10.90;99.90
34434;DHT22;34290;48.562;13.384;2022-10-16T03:06:21;11.00;99.90
34434;DHT22;34290;48.562;13.384;2022-10-16T03:08:47;11.00;99.90
34434;DHT22;34290;48.562;13.384;2022-10-16T03:13:42;10.90;99.90
34434;DHT22;34290;48.562;13.384;2022-10-16T03:18:37;10.90;99.90
34434;DHT22;34290;48.562;13.384;2022-10-16T03:21:04;10.90;99.90
34434;DHT22;34290;48.562;13.384;2022-10-16T03:23:31;10.90;99.90
34434;DHT22;34290;48.562;13.384;2022-10-16T03:25:58;10.90;99.90
34434;DHT22;34290;48.562;13.384;2022-10-16T03:28:25;10.80;99.90
34434;DHT22;34290;48.562;13.384;2022-10-16T03:30:52;10.80;99.90
34434;DHT22;34290;48.562;13.384;2022-10-16T03:33:19;10.80;99.90
34434;DHT22;34290;48.562;13.384;2022-10-16T03:35:52;10.60;99.90
34434;DHT22;34290;48.562;13.384;2022-10-16T03:38:20;10.90;99.90
34434;DHT22;34290;48.562;13.384;2022-10-16T03:40:47;10.70;99.90
34434;DHT22;34290;48.562;13.384;2022-10-16T03:43:14;10.70;99.90
34434;DHT22;34290;48.562;13.384;2022-10-16T03:45:41;10.70;99.90
34434;DHT22;34290;48.562;13.384;2022-10-16T03:48:08;10.70;99.90
34434;DHT22;34290;48.562;13.384;2022-10-16T03:50:35;10.90;99.90
34434;DHT22;34290;48.562;13.384;2022-10-16T03:53:03;10.90;99.90
34434;DHT22;34290;48.562;13.384;2022-10-16T03:55:30;10.90;99.90
34434;DHT22;34290;48.562;13.384;2022-10-16T03:57:57;10.70;99.90
34434;DHT22;34290;48.562;13.384;2022-10-16T04:00:24;10.70;99.90
34434;DHT22;34290;48.562;13.384;2022-10-16T04:02:51;10.60;99.90
34434;DHT22;34290;48.562;13.384;2022-10-16T04:05:18;10.50;99.90
34434;DHT22;34290;48.562;13.384;2022-10-16T04:07:45;10.50;99.90
34434;DHT22;34290;48.562;13.384;2022-10-16T04:10:14;10.50;99.90
34434;DHT22;34290;48.562;13.384;2022-10-16T04:12:41;10.50;99.90
34434;DHT22;34290;48.562;13.384;2022-10-16T04:15:08;10.50;99.90
34434;DHT22;34290;48.562;13.384;2022-10-16T04:17:35;10.40;99.90
34434;DHT22;34290;48.562;13.384;2022-10-16T04:20:03;10.40;99.90
34434;DHT22;34290;48.562;13.384;2022-10-16T04:22:30;10.40;99.90
34434;DHT22;34290;48.562;13.384;2022-10-16T04:24:57;10.40;99.90
34434;DHT22;34290;48.562;13.384;2022-10-16T04:27:25;10.30;99.90
34434;DHT22;34290;48.562;13.384;2022-10-16T04:29:53;10.30;99.90
34434;DHT22;34290;48.562;13.384;2022-10-16T04:32:20;10.30;99.90
34434;DHT22;34290;48.562;13.384;2022-10-16T04:34:47;10.40;99.90
34434;DHT22;34290;48.562;13.384;2022-10-16T04:37:14;10.40;99.90
34434;DHT22;34290;48.562;13.384;2022-10-16T04:39:41;10.40;99.90
34434;DHT22;34290;48.562;13.384;2022-10-16T04:42:09;10.30;99.90
34434;DHT22;34290;48.562;13.384;2022-10-16T04:44:37;10.30;99.90
34434;DHT22;34290;48.562;13.384;2022-10-16T04:47:04;10.20;99.90
34434;DHT22;34290;48.562;13.384;2022-10-16T04:49:31;10.20;99.90
34434;DHT22;34290;48.562;13.384;2022-10-16T04:51:58;10.20;99.90
34434;DHT22;34290;48.562;13.384;2022-10-16T04:54:25;10.10;99.90
34434;DHT22;34290;48.562;13.384;2022-10-16T04:56:52;10.00;99.90
34434;DHT22;34290;48.562;13.384;2022-10-16T04:59:19;9.90;99.90
34434;DHT22;34290;48.562;13.384;2022-10-16T05:01:48;9.90;99.90
34434;DHT22;34290;48.562;13.384;2022-10-16T05:04:15;9.90;99.90
34434;DHT22;34290;48.562;13.384;2022-10-16T05:06:42;9.90;99.90
34434;DHT22;34290;48.562;13.384;2022-10-16T05:09:12;9.90;99.90
34434;DHT22;34290;48.562;13.384;2022-10-16T05:11:39;10.00;99.90
34434;DHT22;34290;48.562;13.384;2022-10-16T05:14:06;10.00;99.90
34434;DHT22;34290;48.562;13.384;2022-10-16T05:16:33;10.00;99.90
34434;DHT22;34290;48.562;13.384;2022-10-16T05:19:02;10.00;99.90
34434;DHT22;34290;48.562;13.384;2022-10-16T05:23:56;10.00;99.90
34434;DHT22;34290;48.562;13.384;2022-10-16T05:26:23;10.00;99.90
34434;DHT22;34290;48.562;13.384;2022-10-16T05:28:50;10.00;99.90
34434;DHT22;34290;48.562;13.384;2022-10-16T05:31:17;10.00;99.90
34434;DHT22;34290;48.562;13.384;2022-10-16T05:33:44;10.10;99.90
34434;DHT22;34290;48.562;13.384;2022-10-16T05:36:12;10.10;99.90
34434;DHT22;34290;48.562;13.384;2022-10-16T05:38:39;10.10;99.90
34434;DHT22;34290;48.562;13.384;2022-10-16T05:41:06;10.10;99.90
34434;DHT22;34290;48.562;13.384;2022-10-16T05:43:33;10.10;99.90
34434;DHT22;34290;48.562;13.384;2022-10-16T05:46:03;10.00;99.90
34434;DHT22;34290;48.562;13.384;2022-10-16T05:48:31;10.00;99.90
34434;DHT22;34290;48.562;13.384;2022-10-16T05:50:59;10.10;99.90
34434;DHT22;34290;48.562;13.384;2022-10-16T05:53:30;10.10;99.90
34434;DHT22;34290;48.562;13.384;2022-10-16T05:55:57;10.00;99.90
34434;DHT22;34290;48.562;13.384;2022-10-16T05:58:28;10.10;99.90
34434;DHT22;34290;48.562;13.384;2022-10-16T06:00:56;10.00;99.90
34434;DHT22;34290;48.562;13.384;2022-10-16T06:03:23;10.00;99.90
34434;DHT22;34290;48.562;13.384;2022-10-16T06:05:50;10.10;99.90
34434;DHT22;34290;48.562;13.384;2022-10-16T06:08:18;10.10;99.90
34434;DHT22;34290;48.562;13.384;2022-10-16T06:10:47;10.10;99.90
34434;DHT22;34290;48.562;13.384;2022-10-16T06:13:15;10.30;99.90
34434;DHT22;34290;48.562;13.384;2022-10-16T06:15:42;10.40;99.90
34434;DHT22;34290;48.562;13.384;2022-10-16T06:18:09;10.70;99.90
34434;DHT22;34290;48.562;13.384;2022-10-16T06:20:37;11.00;99.90
34434;DHT22;34290;48.562;13.384;2022-10-16T06:23:04;11.20;99.90
34434;DHT22;34290;48.562;13.384;2022-10-16T06:25:31;11.40;99.90
34434;DHT22;34290;48.562;13.384;2022-10-16T06:27:59;11.60;99.90
34434;DHT22;34290;48.562;13.384;2022-10-16T06:30:26;11.60;99.90
34434;DHT22;34290;48.562;13.384;2022-10-16T06:32:53;11.70;99.90
34434;DHT22;34290;48.562;13.384;2022-10-16T06:35:20;11.90;99.90
34434;DHT22;34290;48.562;13.384;2022-10-16T06:37:47;12.10;99.90
34434;DHT22;34290;48.562;13.384;2022-10-16T06:40:17;12.20;99.90
34434;DHT22;34290;48.562;13.384;2022-10-16T06:42:47;12.40;99.90
34434;DHT22;34290;48.562;13.384;2022-10-16T06:45:16;12.60;99.90
34434;DHT22;34290;48.562;13.384;2022-10-16T06:47:43;12.70;99.90
34434;DHT22;34290;48.562;13.384;2022-10-16T06:52:38;12.60;99.90
34434;DHT22;34290;48.562;13.384;2022-10-16T06:55:06;12.40;99.90
34434;DHT22;34290;48.562;13.384;2022-10-16T06:57:33;12.20;99.90
34434;DHT22;34290;48.562;13.384;2022-10-16T07:00:00;12.10;99.90
34434;DHT22;34290;48.562;13.384;2022-10-16T07:02:28;12.10;99.90
34434;DHT22;34290;48.562;13.384;2022-10-16T07:04:55;12.10;99.90
34434;DHT22;34290;48.562;13.384;2022-10-16T07:07:22;12.00;99.90
34434;DHT22;34290;48.562;13.384;2022-10-16T07:09:50;12.10;99.90
34434;DHT22;34290;48.562;13.384;2022-10-16T07:12:17;12.10;99.90
34434;DHT22;34290;48.562;13.384;2022-10-16T07:17:11;12.30;99.90
34434;DHT22;34290;48.562;13.384;2022-10-16T07:19:39;12.40;99.90
34434;DHT22;34290;48.562;13.384;2022-10-16T07:22:06;12.60;99.90
34434;DHT22;34290;48.562;13.384;2022-10-16T07:24:33;12.70;99.90
34434;DHT22;34290;48.562;13.384;2022-10-16T07:27:00;12.90;99.90
34434;DHT22;34290;48.562;13.384;2022-10-16T07:29:27;13.00;99.90
34434;DHT22;34290;48.562;13.384;2022-10-16T07:36:50;13.10;99.90
34434;DHT22;34290;48.562;13.384;2022-10-16T07:39:17;13.20;99.90
34434;DHT22;34290;48.562;13.384;2022-10-16T07:44:12;13.20;99.90
34434;DHT22;34290;48.562;13.384;2022-10-16T07:46:39;13.30;99.90
34434;DHT22;34290;48.562;13.384;2022-10-16T07:49:06;13.30;99.90
34434;DHT22;34290;48.562;13.384;2022-10-16T07:51:33;13.30;99.90
34434;DHT22;34290;48.562;13.384;2022-10-16T07:54:01;13.30;99.90
34434;DHT22;34290;48.562;13.384;2022-10-16T07:56:30;13.30;99.90
34434;DHT22;34290;48.562;13.384;2022-10-16T07:58:58;13.30;99.90
34434;DHT22;34290;48.562;13.384;2022-10-16T08:01:25;13.40;99.90
34434;DHT22;34290;48.562;13.384;2022-10-16T08:03:52;13.60;99.90
34434;DHT22;34290;48.562;13.384;2022-10-16T08:06:21;13.70;99.90
34434;DHT22;34290;48.562;13.384;2022-10-16T08:08:48;13.70;99.90
34434;DHT22;34290;48.562;13.384;2022-10-16T08:11:16;14.10;99.90
34434;DHT22;34290;48.562;13.384;2022-10-16T08:13:43;14.10;99.90
34434;DHT22;34290;48.562;13.384;2022-10-16T08:16:12;14.40;99.90
34434;DHT22;34290;48.562;13.384;2022-10-16T08:18:40;14.50;99.90
34434;DHT22;34290;48.562;13.384;2022-10-16T08:21:12;14.80;99.90
34434;DHT22;34290;48.562;13.384;2022-10-16T08:26:08;14.90;99.90
34434;DHT22;34290;48.562;13.384;2022-10-16T08:28:37;14.90;99.90
34434;DHT22;34290;48.562;13.384;2022-10-16T08:31:06;15.50;99.90
34434;DHT22;34290;48.562;13.384;2022-10-16T08:33:33;16.10;99.90
34434;DHT22;34290;48.562;13.384;2022-10-16T08:36:02;16.70;99.90
34434;DHT22;34290;48.562;13.384;2022-10-16T08:38:29;17.70;99.90
34434;DHT22;34290;48.562;13.384;2022-10-16T08:41:01;18.50;99.90
34434;DHT22;34290;48.562;13.384;2022-10-16T08:43:43;18.50;99.90
34434;DHT22;34290;48.562;13.384;2022-10-16T08:46:25;18.20;99.90
34434;DHT22;34290;48.562;13.384;2022-10-16T08:48:57;18.10;99.90
34434;DHT22;34290;48.562;13.384;2022-10-16T08:51:27;18.00;99.90
34434;DHT22;34290;48.562;13.384;2022-10-16T08:53:56;17.90;99.90
34434;DHT22;34290;48.562;13.384;2022-10-16T08:56:25;17.80;99.90
34434;DHT22;34290;48.562;13.384;2022-10-16T08:58:58;17.60;99.90
34434;DHT22;34290;48.562;13.384;2022-10-16T09:01:40;18.10;99.90
34434;DHT22;34290;48.562;13.384;2022-10-16T09:04:46;18.80;99.90
34434;DHT22;34290;48.562;13.384;2022-10-16T09:07:20;19.30;99.90
34434;DHT22;34290;48.562;13.384;2022-10-16T09:09:59;19.30;99.90
34434;DHT22;34290;48.562;13.384;2022-10-16T09:12:31;19.90;99.90
34434;DHT22;34290;48.562;13.384;2022-10-16T09:15:14;19.60;99.90
34434;DHT22;34290;48.562;13.384;2022-10-16T09:17:52;19.50;99.90
34434;DHT22;34290;48.562;13.384;2022-10-16T09:20:31;19.60;99.90
34434;DHT22;34290;48.562;13.384;2022-10-16T09:23:13;19.80;99.90
34434;DHT22;34290;48.562;13.384;2022-10-16T09:25:43;19.90;99.90
34434;DHT22;34290;48.562;13.384;2022-10-16T09:28:11;20.10;99.90
34434;DHT22;34290;48.562;13.384;2022-10-16T09:30:39;20.10;99.90
34434;DHT22;34290;48.562;13.384;2022-10-16T09:33:08;21.30;99.90
34434;DHT22;34290;48.562;13.384;2022-10-16T09:35:38;22.30;99.90
34434;DHT22;34290;48.562;13.384;2022-10-16T09:38:06;22.50;99.90
34434;DHT22;34290;48.562;13.384;2022-10-16T09:40:35;24.70;99.90
34434;DHT22;34290;48.562;13.384;2022-10-16T09:43:12;26.20;99.90
34434;DHT22;34290;48.562;13.384;2022-10-16T09:45:43;27.00;99.90
34434;DHT22;34290;48.562;13.384;2022-10-16T09:48:19;28.20;99.90
34434;DHT22;34290;48.562;13.384;2022-10-16T09:50:56;28.80;99.50
34434;DHT22;34290;48.562;13.384;2022-10-16T09:53:27;29.10;98.50
34434;DHT22;34290;48.562;13.384;2022-10-16T09:56:05;29.50;96.80
34434;DHT22;34290;48.562;13.384;2022-10-16T09:58:32;29.60;97.20
34434;DHT22;34290;48.562;13.384;2022-10-16T10:01:01;29.30;95.90
34434;DHT22;34290;48.562;13.384;2022-10-16T10:03:36;29.30;96.10
34434;DHT22;34290;48.562;13.384;2022-10-16T10:06:15;29.70;96.70
34434;DHT22;34290;48.562;13.384;2022-10-16T10:09:03;29.70;95.20
34434;DHT22;34290;48.562;13.384;2022-10-16T10:11:42;29.60;95.60
34434;DHT22;34290;48.562;13.384;2022-10-16T10:14:20;29.20;95.10
34434;DHT22;34290;48.562;13.384;2022-10-16T10:16:49;29.50;94.70
34434;DHT22;34290;48.562;13.384;2022-10-16T10:19:17;29.80;94.50
34434;DHT22;34290;48.562;13.384;2022-10-16T10:21:45;29.80;94.90
34434;DHT22;34290;48.562;13.384;2022-10-16T10:24:14;29.80;95.40
34434;DHT22;34290;48.562;13.384;2022-10-16T10:26:49;29.80;95.60
34434;DHT22;34290;48.562;13.384;2022-10-16T10:29:31;30.30;94.20
34434;DHT22;34290;48.562;13.384;2022-10-16T10:32:10;30.40;94.80
34434;DHT22;34290;48.562;13.384;2022-10-16T10:35:05;30.60;93.50
34434;DHT22;34290;48.562;13.384;2022-10-16T10:37:48;28.00;94.70
34434;DHT22;34290;48.562;13.384;2022-10-16T10:40:28;28.30;95.50
34434;DHT22;34290;48.562;13.384;2022-10-16T10:43:01;28.60;95.50
34434;DHT22;34290;48.562;13.384;2022-10-16T10:45:38;28.50;95.20
34434;DHT22;34290;48.562;13.384;2022-10-16T10:48:22;28.60;95.70
34434;DHT22;34290;48.562;13.384;2022-10-16T10:50:57;28.70;96.50
34434;DHT22;34290;48.562;13.384;2022-10-16T10:53:40;29.60;96.20
34434;DHT22;34290;48.562;13.384;2022-10-16T10:56:16;30.00;93.60
34434;DHT22;34290;48.562;13.384;2022-10-16T10:59:00;29.10;93.90
34434;DHT22;34290;48.562;13.384;2022-10-16T11:01:34;28.60;95.30
34434;DHT22;34290;48.562;13.384;2022-10-16T11:04:29;29.00;95.00
34434;DHT22;34290;48.562;13.384;2022-10-16T11:07:01;29.40;94.70
34434;DHT22;34290;48.562;13.384;2022-10-16T11:09:34;29.40;94.90
34434;DHT22;34290;48.562;13.384;2022-10-16T11:12:07;29.70;94.80
34434;DHT22;34290;48.562;13.384;2022-10-16T11:14:40;29.20;95.10
34434;DHT22;34290;48.562;13.384;2022-10-16T11:17:11;28.40;94.80
34434;DHT22;34290;48.562;13.384;2022-10-16T11:19:46;28.30;95.70
34434;DHT22;34290;48.562;13.384;2022-10-16T11:22:21;28.90;95.80
34434;DHT22;34290;48.562;13.384;2022-10-16T11:24:54;29.20;94.20
34434;DHT22;34290;48.562;13.384;2022-10-16T11:27:36;29.10;94.40
34434;DHT22;34290;48.562;13.384;2022-10-16T11:30:06;28.40;93.90
34434;DHT22;34290;48.562;13.384;2022-10-16T11:32:54;27.60;95.90
34434;DHT22;34290;48.562;13.384;2022-10-16T11:35:37;27.20;95.30
34434;DHT22;34290;48.562;13.384;2022-10-16T11:38:13;27.00;95.10
34434;DHT22;34290;48.562;13.384;2022-10-16T11:40:45;26.40;96.00
34434;DHT22;34290;48.562;13.384;2022-10-16T11:43:17;26.70;96.80
34434;DHT22;34290;48.562;13.384;2022-10-16T11:45:49;26.80;97.30
34434;DHT22;34290;48.562;13.384;2022-10-16T11:48:24;26.90;97.70
34434;DHT22;34290;48.562;13.384;2022-10-16T11:50:56;27.30;96.20
34434;DHT22;34290;48.562;13.384;2022-10-16T11:53:37;27.00;96.40
34434;DHT22;34290;48.562;13.384;2022-10-16T11:56:06;26.40;96.20
34434;DHT22;34290;48.562;13.384;2022-10-16T11:58:37;26.30;97.00
34434;DHT22;34290;48.562;13.384;2022-10-16T12:01:17;26.30;97.60
34434;DHT22;34290;48.562;13.384;2022-10-16T12:03:50;26.50;97.10
34434;DHT22;34290;48.562;13.384;2022-10-16T12:06:30;26.60;96.70
34434;DHT22;34290;48.562;13.384;2022-10-16T12:08:59;26.20;96.80
34434;DHT22;34290;48.562;13.384;2022-10-16T12:11:35;26.10;96.90
34434;DHT22;34290;48.562;13.384;2022-10-16T12:14:34;25.80;97.40
34434;DHT22;34290;48.562;13.384;2022-10-16T12:17:03;25.40;97.70
34434;DHT22;34290;48.562;13.384;2022-10-16T12:19:32;25.00;98.30
34434;DHT22;34290;48.562;13.384;2022-10-16T12:22:02;24.90;96.90
34434;DHT22;34290;48.562;13.384;2022-10-16T12:24:34;24.90;97.90
34434;DHT22;34290;48.562;13.384;2022-10-16T12:27:02;24.80;98.60
34434;DHT22;34290;48.562;13.384;2022-10-16T12:29:34;24.80;98.20
34434;DHT22;34290;48.562;13.384;2022-10-16T12:32:03;24.60;98.50
34434;DHT22;34290;48.562;13.384;2022-10-16T12:34:37;24.10;98.10
34434;DHT22;34290;48.562;13.384;2022-10-16T12:37:13;24.30;99.00
34434;DHT22;34290;48.562;13.384;2022-10-16T12:42:31;24.80;99.10
34434;DHT22;34290;48.562;13.384;2022-10-16T12:44:59;24.60;97.80
34434;DHT22;34290;48.562;13.384;2022-10-16T12:47:37;24.10;98.60
34434;DHT22;34290;48.562;13.384;2022-10-16T12:50:23;24.20;98.90
34434;DHT22;34290;48.562;13.384;2022-10-16T12:52:52;23.60;99.10
34434;DHT22;34290;48.562;13.384;2022-10-16T12:55:21;23.60;99.10
34434;DHT22;34290;48.562;13.384;2022-10-16T13:00:48;23.60;99.30
34434;DHT22;34290;48.562;13.384;2022-10-16T13:03:43;23.90;99.30
34434;DHT22;34290;48.562;13.384;2022-10-16T13:06:22;24.00;98.90
34434;DHT22;34290;48.562;13.384;2022-10-16T13:09:11;23.90;98.70
34434;DHT22;34290;48.562;13.384;2022-10-16T13:11:57;24.20;98.70
34434;DHT22;34290;48.562;13.384;2022-10-16T13:14:38;24.40;99.60
34434;DHT22;34290;48.562;13.384;2022-10-16T13:17:14;24.60;99.00
34434;DHT22;34290;48.562;13.384;2022-10-16T13:19:50;24.60;99.80
34434;DHT22;34290;48.562;13.384;2022-10-16T13:22:23;24.40;98.70
34434;DHT22;34290;48.562;13.384;2022-10-16T13:25:04;24.60;99.90
34434;DHT22;34290;48.562;13.384;2022-10-16T13:27:43;24.50;98.50
34434;DHT22;34290;48.562;13.384;2022-10-16T13:30:16;24.20;99.60
34434;DHT22;34290;48.562;13.384;2022-10-16T13:32:45;23.90;99.90
34434;DHT22;34290;48.562;13.384;2022-10-16T13:35:22;23.70;99.90
34434;DHT22;34290;48.562;13.384;2022-10-16T13:37:49;23.40;99.90
34434;DHT22;34290;48.562;13.384;2022-10-16T13:40:23;23.20;99.90
34434;DHT22;34290;48.562;13.384;2022-10-16T13:42:51;23.20;99.90
34434;DHT22;34290;48.562;13.384;2022-10-16T13:45:21;23.10;99.90
34434;DHT22;34290;48.562;13.384;2022-10-16T13:47:48;23.20;99.90
34434;DHT22;34290;48.562;13.384;2022-10-16T13:50:18;23.00;99.90
34434;DHT22;34290;48.562;13.384;2022-10-16T13:52:45;23.00;99.90
34434;DHT22;34290;48.562;13.384;2022-10-16T13:55:13;22.90;99.90
34434;DHT22;34290;48.562;13.384;2022-10-16T13:57:42;22.80;99.90
34434;DHT22;34290;48.562;13.384;2022-10-16T14:00:21;22.70;99.90
34434;DHT22;34290;48.562;13.384;2022-10-16T14:02:53;22.40;99.90
34434;DHT22;34290;48.562;13.384;2022-10-16T14:05:21;22.40;99.90
34434;DHT22;34290;48.562;13.384;2022-10-16T14:07:49;22.30;99.90
34434;DHT22;34290;48.562;13.384;2022-10-16T14:10:23;22.30;99.90
34434;DHT22;34290;48.562;13.384;2022-10-16T14:12:57;22.30;99.90
34434;DHT22;34290;48.562;13.384;2022-10-16T14:15:25;22.40;99.90
34434;DHT22;34290;48.562;13.384;2022-10-16T14:17:53;22.30;99.90
34434;DHT22;34290;48.562;13.384;2022-10-16T14:20:24;22.40;99.90
34434;DHT22;34290;48.562;13.384;2022-10-16T14:22:59;22.50;99.90
34434;DHT22;34290;48.562;13.384;2022-10-16T14:25:29;22.60;99.90
34434;DHT22;34290;48.562;13.384;2022-10-16T14:28:03;22.60;99.90
34434;DHT22;34290;48.562;13.384;2022-10-16T14:30:34;22.40;99.90
34434;DHT22;34290;48.562;13.384;2022-10-16T14:33:03;22.20;99.90
34434;DHT22;34290;48.562;13.384;2022-10-16T14:35:32;22.00;99.90
34434;DHT22;34290;48.562;13.384;2022-10-16T14:38:01;21.90;99.90
34434;DHT22;34290;48.562;13.384;2022-10-16T14:40:30;21.80;99.90
34434;DHT22;34290;48.562;13.384;2022-10-16T14:43:05;21.90;99.90
34434;DHT22;34290;48.562;13.384;2022-10-16T14:45:34;21.80;99.90
34434;DHT22;34290;48.562;13.384;2022-10-16T14:48:04;21.70;99.90
34434;DHT22;34290;48.562;13.384;2022-10-16T14:50:32;21.60;99.90
34434;DHT22;34290;48.562;13.384;2022-10-16T14:52:59;21.50;99.90
34434;DHT22;34290;48.562;13.384;2022-10-16T14:55:26;21.40;99.90
34434;DHT22;34290;48.562;13.384;2022-10-16T15:00:27;21.10;99.90
34434;DHT22;34290;48.562;13.384;2022-10-16T15:05:23;20.90;99.90
34434;DHT22;34290;48.562;13.384;2022-10-16T15:07:52;20.80;99.90
34434;DHT22;34290;48.562;13.384;2022-10-16T15:10:25;20.60;99.90
34434;DHT22;34290;48.562;13.384;2022-10-16T15:12:55;20.50;99.90
34434;DHT22;34290;48.562;13.384;2022-10-16T15:15:36;20.50;99.90
34434;DHT22;34290;48.562;13.384;2022-10-16T15:18:04;20.60;99.90
34434;DHT22;34290;48.562;13.384;2022-10-16T15:20:34;20.50;99.90
34434;DHT22;34290;48.562;13.384;2022-10-16T15:23:02;20.60;99.90
34434;DHT22;34290;48.562;13.384;2022-10-16T15:25:35;20.60;99.90
34434;DHT22;34290;48.562;13.384;2022-10-16T15:28:04;20.50;99.90
34434;DHT22;34290;48.562;13.384;2022-10-16T15:30:32;20.30;99.90
34434;DHT22;34290;48.562;13.384;2022-10-16T15:32:59;20.20;99.90
34434;DHT22;34290;48.562;13.384;2022-10-16T15:35:32;20.10;99.90
34434;DHT22;34290;48.562;13.384;2022-10-16T15:37:59;19.90;99.90
34434;DHT22;34290;48.562;13.384;2022-10-16T15:40:26;19.70;99.90
34434;DHT22;34290;48.562;13.384;2022-10-16T15:42:53;19.50;99.90
34434;DHT22;34290;48.562;13.384;2022-10-16T15:45:28;19.40;99.90
34434;DHT22;34290;48.562;13.384;2022-10-16T15:48:00;19.30;99.90
34434;DHT22;34290;48.562;13.384;2022-10-16T15:50:27;19.30;99.90
34434;DHT22;34290;48.562;13.384;2022-10-16T15:55:24;19.00;99.90
34434;DHT22;34290;48.562;13.384;2022-10-16T15:57:51;18.70;99.90
34434;DHT22;34290;48.562;13.384;2022-10-16T16:00:19;18.60;99.90
34434;DHT22;34290;48.562;13.384;2022-10-16T16:02:50;18.50;99.90
34434;DHT22;34290;48.562;13.384;2022-10-16T16:05:22;18.40;99.90
34434;DHT22;34290;48.562;13.384;2022-10-16T16:07:50;18.30;99.90
34434;DHT22;34290;48.562;13.384;2022-10-16T16:10:18;18.20;99.90
34434;DHT22;34290;48.562;13.384;2022-10-16T16:12:46;18.00;99.90
34434;DHT22;34290;48.562;13.384;2022-10-16T16:15:18;17.80;99.90
34434;DHT22;34290;48.562;13.384;2022-10-16T16:17:45;17.60;99.90
34434;DHT22;34290;48.562;13.384;2022-10-16T16:20:12;17.50;99.90